»·PEaware :: N80VJ KLAX-KSAN

N80VJ :: KLAX-KSAN

FLIGHT INFORMATION

Flight Status: Arrived
Operator: Privately registered:
United States
More flights under this callsign
Pilot: Christopher S. (28961)
Aircraft: CIRRUS SR-20
(SR20)
More flights by this aircraft type
Origin: KLAX Los Angeles Intl
United States
Destination: KSAN San Diego Intl-Lindbergh
United States
More flights between these airports :: More routes between these airports
Route:
File this flight plan on PilotEdge
Remarks:
Altitude:
(Current/Filed)
5,500ft
Speed:
(Current/Filed)
150kts
Departed: 15-Jan-21 12:54 PM
Arrived: 15-Jan-21 01:42 PM
Distance/Time
Traveled:
95nm/0:48
Distance/Time
To Go:
Arrived

Flight Plot

Page will automatically refresh every two minutes.


Map Options




Map Legend


Flown Route
Filed Route
Departure Airport
Arrival Airport
Navaid (VOR, NDB)
Fix

Horizontal Profiles

Position Reports

Time Latitude Longitude Heading Altitude Ground
Speed
15-Jan-21 12:38 33.933639 -118.399303 174 116ft 0kts
15-Jan-21 12:39 33.933639 -118.399303 174 116ft 0kts
15-Jan-21 12:40 33.933639 -118.399303 174 116ft 0kts
15-Jan-21 12:41 33.933639 -118.399303 174 116ft 0kts
15-Jan-21 12:42 33.933639 -118.399303 174 116ft 0kts
15-Jan-21 12:43 33.933639 -118.399303 174 116ft 0kts
15-Jan-21 12:44 33.933639 -118.399303 174 116ft 0kts
15-Jan-21 12:45 33.933639 -118.399303 174 116ft 0kts
15-Jan-21 12:46 33.933639 -118.399303 174 116ft 0kts
15-Jan-21 12:47 33.933639 -118.399303 174 116ft 0kts
15-Jan-21 12:48 33.933639 -118.399303 174 116ft 0kts
15-Jan-21 12:49 33.934569 -118.397918 80 112ft 10kts
15-Jan-21 12:50 33.935367 -118.390250 82 103ft 32kts
15-Jan-21 12:51 33.936383 -118.382868 26 99ft 0kts
15-Jan-21 12:52 33.936383 -118.382868 26 99ft 0kts
15-Jan-21 12:53 33.936863 -118.387780 263 103ft 74kts
15-Jan-21 12:54 33.934110 -118.418986 262 1155ft 96kts
15-Jan-21 12:55 33.921759 -118.441932 172 2324ft 95kts
15-Jan-21 12:56 33.887955 -118.440109 164 2551ft 148kts
15-Jan-21 12:57 33.846642 -118.424440 162 2543ft 157kts
15-Jan-21 12:58 33.809314 -118.409498 162 3599ft 122kts
15-Jan-21 12:59 33.776423 -118.394456 145 4486ft 123kts
15-Jan-21 13:00 33.748745 -118.369055 134 5317ft 122kts
15-Jan-21 13:01 33.730689 -118.330072 113 5555ft 147kts
15-Jan-21 13:02 33.715326 -118.283333 93 5564ft 150kts
15-Jan-21 13:03 33.710983 -118.234012 93 5556ft 145kts
15-Jan-21 13:04 33.706607 -118.186055 93 5553ft 144kts
15-Jan-21 13:05 33.702106 -118.137995 93 5550ft 145kts
15-Jan-21 13:06 33.696925 -118.089456 95 5546ft 145kts
15-Jan-21 13:07 33.685035 -118.042059 110 5544ft 147kts
15-Jan-21 13:08 33.666056 -117.998668 125 5542ft 146kts
15-Jan-21 13:09 33.640076 -117.960859 125 5540ft 144kts
15-Jan-21 13:10 33.614577 -117.923657 125 5539ft 143kts
15-Jan-21 13:11 33.589677 -117.886957 125 5538ft 141kts
15-Jan-21 13:12 33.565327 -117.850417 125 5536ft 139kts
15-Jan-21 13:13 33.541243 -117.813815 125 5535ft 138kts
15-Jan-21 13:14 33.517251 -117.777676 125 5534ft 138kts
15-Jan-21 13:15 33.493003 -117.741835 125 5533ft 138kts
15-Jan-21 13:16 33.468176 -117.706117 125 5531ft 139kts
15-Jan-21 13:17 33.442836 -117.670706 125 5526ft 140kts
15-Jan-21 13:18 33.416621 -117.634949 125 5528ft 143kts
15-Jan-21 13:19 33.389520 -117.598610 124 5527ft 144kts
15-Jan-21 13:20 33.360816 -117.563319 127 5524ft 145kts
15-Jan-21 13:21 33.332336 -117.528572 128 5531ft 146kts
15-Jan-21 13:22 33.303845 -117.493941 128 5529ft 146kts
15-Jan-21 13:23 33.275267 -117.459248 128 5526ft 146kts
15-Jan-21 13:24 33.246642 -117.424461 128 5527ft 146kts
15-Jan-21 13:25 33.211553 -117.398198 155 5532ft 152kts
15-Jan-21 13:26 33.171875 -117.380354 154 5533ft 152kts
15-Jan-21 13:27 33.132223 -117.360803 153 5535ft 152kts
15-Jan-21 13:28 33.093343 -117.341203 154 5537ft 152kts
15-Jan-21 13:29 33.053847 -117.321114 153 5538ft 153kts
15-Jan-21 13:30 33.014546 -117.300992 152 5310ft 145kts
15-Jan-21 13:31 32.977088 -117.281717 154 4482ft 141kts
15-Jan-21 13:32 32.941297 -117.263479 163 3584ft 139kts
15-Jan-21 13:33 32.904333 -117.267456 188 3528ft 137kts
15-Jan-21 13:34 32.864286 -117.272664 188 3520ft 141kts
15-Jan-21 13:35 32.825295 -117.277280 188 3520ft 139kts
15-Jan-21 13:36 32.787689 -117.261827 116 3169ft 161kts
15-Jan-21 13:37 32.768082 -117.212657 124 2363ft 152kts
15-Jan-21 13:38 32.748246 -117.171020 105 1096ft 142kts
15-Jan-21 13:39 32.732329 -117.148701 218 853ft 78kts
15-Jan-21 13:40 32.729563 -117.173482 286 211ft 74kts
15-Jan-21 13:41 32.733102 -117.184264 44 19ft 7kts
15-Jan-21 13:42 32.733147 -117.184191 59 19ft 4kts
15-Jan-21 13:43 32.733384 -117.179637 15 19ft 7kts
15-Jan-21 13:44 32.733603 -117.179502 139 19ft 0kts

Navigation Log

Ident Type
Flight plan parsing failed, navigation log unavailable